Time;durP1;ratioP1;P1;durP2;ratioP2;P2;SDS_P1;SDS_P2;PMS_P1;PMS_P2;Temp;Humidity;BMP_temperature;BMP_pressure;BME280_temperature;BME280_humidity;BME280_pressure;Samples;Min_cycle;Max_cycle;Signal;HPM_P1;HPM_P2
2021/10/01 00:00:20;;;;;;;61.13;46.25;;;;;;;;;;4960612;28;20106;-74
2021/10/01 00:02:46;;;;;;;51.92;39.42;;;;;;;;;;4972999;28;20026;-74
2021/10/01 00:05:12;;;;;;;52.95;39.35;;;;;;;;;;4971640;28;20388;-74
2021/10/01 00:07:39;;;;;;;59.90;40.47;;;;;;;;;;4973116;28;20041;-74
2021/10/01 00:10:05;;;;;;;51.83;38.83;;;;;;;;;;4971312;28;20615;-74
2021/10/01 00:12:31;;;;;;;51.72;39.83;;;;;;;;;;4964170;28;20022;-74
2021/10/01 00:14:57;;;;;;;47.53;35.97;;;;;;;;;;4971740;28;20023;-73
2021/10/01 00:17:23;;;;;;;51.15;38.42;;;;;;;;;;4972943;28;20033;-73
2021/10/01 00:19:52;;;;;;;46.83;36.30;;;;;;;;;;4972586;28;20035;-73
2021/10/01 00:22:18;;;;;;;50.75;37.13;;;;;;;;;;4971180;28;20034;-73
2021/10/01 00:24:44;;;;;;;45.20;35.47;;;;;;;;;;4971231;28;20515;-74
2021/10/01 00:27:12;;;;;;;43.08;34.47;;;;;;;;;;4962779;28;20489;-71
2021/10/01 00:29:38;;;;;;;41.83;33.85;;;;;;;;;;4973518;28;20027;-73
2021/10/01 00:32:05;;;;;;;49.70;36.78;;;;;;;;;;4971446;28;20050;-75
2021/10/01 00:34:31;;;;;;;47.35;35.90;;;;;;;;;;4971057;28;20031;-74
2021/10/01 00:36:57;;;;;;;50.97;38.08;;;;;;;;;;4972913;28;20102;-73
2021/10/01 00:39:23;;;;;;;51.17;37.45;;;;;;;;;;4973144;28;20054;-74
2021/10/01 00:41:49;;;;;;;50.80;35.83;;;;;;;;;;4972367;28;20042;-69
2021/10/01 00:44:15;;;;;;;47.08;35.10;;;;;;;;;;4967073;28;20037;-73
2021/10/01 00:46:41;;;;;;;48.15;33.85;;;;;;;;;;4972964;28;20023;-75
2021/10/01 00:49:08;;;;;;;45.42;34.05;;;;;;;;;;4972483;28;20023;-73
2021/10/01 00:51:35;;;;;;;49.70;36.00;;;;;;;;;;4976259;28;20023;-74
2021/10/01 00:54:01;;;;;;;49.10;35.10;;;;;;;;;;4967437;28;20485;-75
2021/10/01 00:56:28;;;;;;;49.72;35.53;;;;;;;;;;4975680;28;20027;-74
2021/10/01 00:58:54;;;;;;;45.40;33.85;;;;;;;;;;4967604;28;20051;-73
2021/10/01 01:01:22;;;;;;;53.88;36.33;;;;;;;;;;4977268;28;20368;-72
2021/10/01 01:04:00;;;;;;;48.80;35.10;;;;;;;;;;4974162;28;20551;-73
2021/10/01 01:06:45;;;;;;;45.88;34.72;;;;;;;;;;4974330;28;20409;-74
2021/10/01 01:09:11;;;;;;;48.50;34.10;;;;;;;;;;4974867;28;20406;-74
2021/10/01 01:12:01;;;;;;;45.42;33.15;;;;;;;;;;4975172;28;20026;-74
2021/10/01 01:14:31;;;;;;;45.33;33.63;;;;;;;;;;4974710;28;20034;-74
2021/10/01 01:16:58;;;;;;;47.70;33.80;;;;;;;;;;4975454;28;20052;-74
2021/10/01 01:19:43;;;;;;;48.38;32.65;;;;;;;;;;4975393;28;20073;-73
2021/10/01 01:22:09;;;;;;;42.28;31.42;;;;;;;;;;4973107;28;20090;-74
2021/10/01 01:24:41;;;;;;;45.78;32.47;;;;;;;;;;4973247;28;20066;-74
2021/10/01 01:27:20;;;;;;;43.58;32.20;;;;;;;;;;4974905;28;20175;-72
2021/10/01 01:29:59;;;;;;;46.10;33.15;;;;;;;;;;4972014;28;20035;-74
2021/10/01 01:32:25;;;;;;;42.53;32.38;;;;;;;;;;4971240;28;20018;-75
2021/10/01 01:34:53;;;;;;;46.85;33.33;;;;;;;;;;4973832;28;20022;-74
2021/10/01 01:37:24;;;;;;;47.22;33.17;;;;;;;;;;4973346;28;20395;-74
2021/10/01 01:39:51;;;;;;;47.55;34.47;;;;;;;;;;4975019;28;20091;-74
2021/10/01 01:42:17;;;;;;;50.88;36.92;;;;;;;;;;4968463;28;20118;-74
2021/10/01 01:44:44;;;;;;;50.72;35.58;;;;;;;;;;4967790;28;20447;-73
2021/10/01 01:47:11;;;;;;;43.33;31.85;;;;;;;;;;4967110;28;20444;-75
2021/10/01 01:49:38;;;;;;;42.45;31.05;;;;;;;;;;4973113;28;20081;-74
2021/10/01 01:52:05;;;;;;;39.95;30.23;;;;;;;;;;4985550;28;20044;-74
2021/10/01 01:54:32;;;;;;;45.30;33.80;;;;;;;;;;4985432;28;20022;-75
2021/10/01 01:56:58;;;;;;;46.90;34.67;;;;;;;;;;4971818;28;20042;-74
2021/10/01 01:59:25;;;;;;;47.65;35.92;;;;;;;;;;4980194;28;20424;-73
2021/10/01 02:01:51;;;;;;;49.03;35.33;;;;;;;;;;4989079;28;20062;-73
2021/10/01 02:04:18;;;;;;;47.63;34.38;;;;;;;;;;4974316;28;20026;-70
2021/10/01 02:06:45;;;;;;;50.28;36.63;;;;;;;;;;4974159;28;20023;-75
2021/10/01 02:09:12;;;;;;;47.58;36.55;;;;;;;;;;4975147;28;20035;-73
2021/10/01 02:11:39;;;;;;;44.05;34.15;;;;;;;;;;4974357;28;20098;-75
2021/10/01 02:14:05;;;;;;;50.22;35.42;;;;;;;;;;4974188;28;20484;-73
2021/10/01 02:16:31;;;;;;;53.70;36.92;;;;;;;;;;4973560;28;20081;-73
2021/10/01 02:18:59;;;;;;;53.92;38.45;;;;;;;;;;4974407;28;20389;-74
2021/10/01 02:21:25;;;;;;;50.05;37.15;;;;;;;;;;4974809;28;20023;-75
2021/10/01 02:23:52;;;;;;;42.05;32.85;;;;;;;;;;4959657;28;20404;-74
2021/10/01 02:26:36;;;;;;;43.38;33.88;;;;;;;;;;4969220;28;20030;-73
2021/10/01 02:29:16;;;;;;;36.28;31.08;;;;;;;;;;4964980;28;20049;-74
2021/10/01 02:31:42;;;;;;;43.50;32.45;;;;;;;;;;4969018;28;20033;-73
2021/10/01 02:34:09;;;;;;;48.03;33.47;;;;;;;;;;4974426;28;20022;-73
2021/10/01 02:36:35;;;;;;;46.25;33.85;;;;;;;;;;4972186;28;20493;-74
2021/10/01 02:39:01;;;;;;;44.22;33.88;;;;;;;;;;4973939;28;20504;-74
2021/10/01 02:41:27;;;;;;;45.95;33.85;;;;;;;;;;4974063;28;20030;-74
2021/10/01 02:43:53;;;;;;;46.67;34.13;;;;;;;;;;4971689;28;20031;-74
2021/10/01 02:46:21;;;;;;;46.15;34.15;;;;;;;;;;4973836;28;20073;-75
2021/10/01 02:48:48;;;;;;;43.38;32.35;;;;;;;;;;4974118;28;20031;-74
2021/10/01 02:51:17;;;;;;;47.00;34.67;;;;;;;;;;4965840;28;20532;-74
2021/10/01 02:53:50;;;;;;;47.33;35.28;;;;;;;;;;4972191;28;20027;-74
2021/10/01 02:56:22;;;;;;;47.30;36.13;;;;;;;;;;4961392;28;20026;-74
2021/10/01 02:59:04;;;;;;;53.63;37.03;;;;;;;;;;4970812;28;20575;-74
2021/10/01 03:01:31;;;;;;;44.80;30.90;;;;;;;;;;4973819;28;20138;-73
2021/10/01 03:03:59;;;;;;;46.08;34.17;;;;;;;;;;4979454;28;20027;-73
2021/10/01 03:06:26;;;;;;;48.53;34.92;;;;;;;;;;4971893;28;20023;-75
2021/10/01 03:08:52;;;;;;;42.88;31.92;;;;;;;;;;4973720;28;20035;-73
2021/10/01 03:11:19;;;;;;;43.33;33.08;;;;;;;;;;4973528;28;20392;-73
2021/10/01 03:13:46;;;;;;;44.17;33.05;;;;;;;;;;4970884;28;20027;-74
2021/10/01 03:16:13;;;;;;;41.47;32.38;;;;;;;;;;4973370;28;20022;-72
2021/10/01 03:18:41;;;;;;;48.42;34.50;;;;;;;;;;4968517;28;20118;-74
2021/10/01 03:21:07;;;;;;;47.67;33.90;;;;;;;;;;4966500;28;20034;-73
2021/10/01 03:23:34;;;;;;;39.10;31.33;;;;;;;;;;4971604;28;20109;-73
2021/10/01 03:26:00;;;;;;;40.03;30.27;;;;;;;;;;4972530;28;20027;-72
2021/10/01 03:28:26;;;;;;;39.17;30.23;;;;;;;;;;4971465;28;20397;-74
2021/10/01 03:30:52;;;;;;;37.55;29.60;;;;;;;;;;4972605;28;20110;-74
2021/10/01 03:33:19;;;;;;;36.05;28.20;;;;;;;;;;4969678;28;20482;-74
2021/10/01 03:35:46;;;;;;;38.35;29.17;;;;;;;;;;4971719;28;20082;-72
2021/10/01 03:38:13;;;;;;;41.63;32.03;;;;;;;;;;4972777;28;20035;-73
2021/10/01 03:40:48;;;;;;;45.20;32.55;;;;;;;;;;4973412;28;20497;-74
2021/10/01 03:43:14;;;;;;;45.58;33.35;;;;;;;;;;4972022;28;20609;-74
2021/10/01 03:45:41;;;;;;;44.33;32.92;;;;;;;;;;4964382;28;20027;-74
2021/10/01 03:48:07;;;;;;;43.80;34.50;;;;;;;;;;4973866;28;20110;-72
2021/10/01 03:50:34;;;;;;;46.75;34.40;;;;;;;;;;4973026;28;20525;-75
2021/10/01 03:53:00;;;;;;;43.15;31.80;;;;;;;;;;4970392;28;20030;-74
2021/10/01 03:55:27;;;;;;;43.40;31.10;;;;;;;;;;4970068;28;20031;-71
2021/10/01 03:57:53;;;;;;;41.58;31.40;;;;;;;;;;4971365;28;20047;-74
2021/10/01 04:00:19;;;;;;;41.20;31.20;;;;;;;;;;4972545;28;20038;-74
2021/10/01 04:02:45;;;;;;;40.53;31.77;;;;;;;;;;4960667;28;20478;-74
2021/10/01 04:05:12;;;;;;;40.75;31.65;;;;;;;;;;4967487;28;20026;-72
2021/10/01 04:07:38;;;;;;;40.67;30.58;;;;;;;;;;4955479;28;20518;-72
2021/10/01 04:10:06;;;;;;;41.17;32.40;;;;;;;;;;4971449;28;20049;-75
2021/10/01 04:12:33;;;;;;;44.75;32.28;;;;;;;;;;4972911;28;20034;-74
2021/10/01 04:14:59;;;;;;;42.63;32.30;;;;;;;;;;4972358;28;20166;-72
2021/10/01 04:17:25;;;;;;;43.05;31.50;;;;;;;;;;4972943;28;20026;-74
2021/10/01 04:19:51;;;;;;;41.75;31.60;;;;;;;;;;4963736;28;20512;-74
2021/10/01 04:22:17;;;;;;;46.83;32.78;;;;;;;;;;4973257;28;20035;-74
2021/10/01 04:24:44;;;;;;;49.65;34.40;;;;;;;;;;4968512;28;20421;-74
2021/10/01 04:27:10;;;;;;;50.65;33.67;;;;;;;;;;4965918;28;20026;-72
2021/10/01 04:29:36;;;;;;;47.83;34.58;;;;;;;;;;4972266;28;20023;-72
2021/10/01 04:32:05;;;;;;;48.15;35.20;;;;;;;;;;4968295;28;20042;-69
2021/10/01 04:34:33;;;;;;;45.58;34.55;;;;;;;;;;4969486;28;20030;-73
2021/10/01 04:37:00;;;;;;;48.10;34.67;;;;;;;;;;4975335;28;20019;-73
2021/10/01 04:39:29;;;;;;;42.95;32.20;;;;;;;;;;4982337;28;20077;-72
2021/10/01 04:41:55;;;;;;;43.65;32.08;;;;;;;;;;4974810;28;20032;-75
2021/10/01 04:44:23;;;;;;;38.53;30.05;;;;;;;;;;4964056;28;20483;-76
2021/10/01 04:46:49;;;;;;;43.60;32.08;;;;;;;;;;4964837;28;20419;-69
2021/10/01 04:49:16;;;;;;;44.50;32.50;;;;;;;;;;4980359;28;20038;-73
2021/10/01 04:51:42;;;;;;;48.58;32.75;;;;;;;;;;4979043;28;20031;-74
2021/10/01 04:54:09;;;;;;;45.45;32.65;;;;;;;;;;4975856;28;20027;-72
2021/10/01 04:56:44;;;;;;;48.63;32.70;;;;;;;;;;4958949;28;20025;-76
2021/10/01 04:59:21;;;;;;;45.72;32.42;;;;;;;;;;4959761;28;20181;-73
2021/10/01 05:01:47;;;;;;;41.53;29.98;;;;;;;;;;4983407;28;20031;-75
2021/10/01 05:04:13;;;;;;;45.60;29.60;;;;;;;;;;4978684;28;20030;-68
2021/10/01 05:06:41;;;;;;;45.40;29.98;;;;;;;;;;4983964;28;20030;-72
2021/10/01 05:09:07;;;;;;;40.75;30.58;;;;;;;;;;4981443;28;20046;-68
2021/10/01 05:11:33;;;;;;;38.20;29.70;;;;;;;;;;4983883;28;20116;-75
2021/10/01 05:13:59;;;;;;;50.80;30.77;;;;;;;;;;4982587;28;20109;-68
2021/10/01 05:16:26;;;;;;;39.22;30.15;;;;;;;;;;4983781;28;20034;-70
2021/10/01 05:18:56;;;;;;;44.63;32.15;;;;;;;;;;4995690;28;20019;-77
2021/10/01 05:21:23;;;;;;;44.22;32.67;;;;;;;;;;4990083;28;20039;-76
2021/10/01 05:23:49;;;;;;;45.45;31.40;;;;;;;;;;4980947;28;20065;-77
2021/10/01 05:26:17;;;;;;;44.30;31.70;;;;;;;;;;4983402;28;20110;-77
2021/10/01 05:28:43;;;;;;;46.72;32.25;;;;;;;;;;4977789;28;20026;-74
2021/10/01 05:31:09;;;;;;;45.97;32.47;;;;;;;;;;4973587;28;20023;-72
2021/10/01 05:33:35;;;;;;;47.05;34.83;;;;;;;;;;4977297;28;20053;-77
2021/10/01 05:36:01;;;;;;;50.63;35.38;;;;;;;;;;4982866;28;20054;-72
2021/10/01 05:38:29;;;;;;;47.88;33.95;;;;;;;;;;4984813;28;20043;-76
2021/10/01 05:40:55;;;;;;;45.58;32.80;;;;;;;;;;4982447;28;20440;-75
2021/10/01 05:43:24;;;;;;;46.42;32.90;;;;;;;;;;4974161;28;20385;-76
2021/10/01 05:45:53;;;;;;;46.05;33.42;;;;;;;;;;4974212;28;20489;-70
2021/10/01 05:48:19;;;;;;;49.78;34.17;;;;;;;;;;4979785;28;20030;-72
2021/10/01 05:50:52;;;;;;;48.15;33.80;;;;;;;;;;4976553;28;20022;-76
2021/10/01 05:56:11;;;;;;;43.85;30.23;;;;;;;;;;4953950;28;20507;-76
2021/10/01 05:58:38;;;;;;;42.55;31.90;;;;;;;;;;4971161;28;20050;-76
2021/10/01 06:01:04;;;;;;;46.20;33.53;;;;;;;;;;4973555;28;20109;-71
2021/10/01 06:03:31;;;;;;;41.33;30.77;;;;;;;;;;4973560;28;20034;-75
2021/10/01 06:05:57;;;;;;;38.92;31.17;;;;;;;;;;4960766;28;20039;-77
2021/10/01 06:08:23;;;;;;;44.45;31.40;;;;;;;;;;4960456;28;20034;-76
2021/10/01 06:10:50;;;;;;;47.38;31.40;;;;;;;;;;4976297;28;20035;-76
2021/10/01 06:13:20;;;;;;;45.90;32.20;;;;;;;;;;4980106;28;20038;-75
2021/10/01 06:16:04;;;;;;;52.33;35.15;;;;;;;;;;4977836;28;20171;-73
2021/10/01 06:18:30;;;;;;;52.22;35.47;;;;;;;;;;4978858;28;20049;-69
2021/10/01 06:21:17;;;;;;;46.05;33.28;;;;;;;;;;4987664;28;20023;-74
2021/10/01 06:23:47;;;;;;;49.10;36.65;;;;;;;;;;4991157;28;20066;-76
2021/10/01 06:26:13;;;;;;;51.88;36.30;;;;;;;;;;4965471;28;20049;-71
2021/10/01 06:28:39;;;;;;;56.03;37.67;;;;;;;;;;4977619;28;20532;-72
2021/10/01 06:31:05;;;;;;;55.08;36.38;;;;;;;;;;4975193;28;20460;-71
2021/10/01 06:33:31;;;;;;;53.58;34.95;;;;;;;;;;4977854;28;20034;-71
2021/10/01 06:35:58;;;;;;;55.15;37.67;;;;;;;;;;4985124;28;20034;-70
2021/10/01 06:38:25;;;;;;;60.10;37.28;;;;;;;;;;4973592;28;20047;-70
2021/10/01 06:40:51;;;;;;;55.47;36.63;;;;;;;;;;4982058;28;20022;-70
2021/10/01 06:43:19;;;;;;;57.58;34.50;;;;;;;;;;4974944;28;20034;-70
2021/10/01 06:45:48;;;;;;;51.25;36.20;;;;;;;;;;4977851;28;20473;-72
2021/10/01 07:39:02;;;;;;;44.30;31.25;;;;;;;;;;4971334;28;20416;-74
2021/10/01 08:21:45;;;;;;;25.42;17.02;;;;;;;;;;4976942;28;20050;-73
2021/10/01 08:24:12;;;;;;;20.83;14.27;;;;;;;;;;4955633;28;20050;-74
2021/10/01 08:26:44;;;;;;;20.42;14.40;;;;;;;;;;4980307;28;20037;-75
2021/10/01 08:29:14;;;;;;;25.13;14.93;;;;;;;;;;4962811;28;20493;-77
2021/10/01 08:31:49;;;;;;;24.00;15.77;;;;;;;;;;4980781;28;20038;-73
2021/10/01 08:34:15;;;;;;;24.52;14.05;;;;;;;;;;4979907;28;20103;-71
2021/10/01 08:36:41;;;;;;;28.20;15.35;;;;;;;;;;4976510;28;20093;-79
2021/10/01 08:39:08;;;;;;;26.60;16.98;;;;;;;;;;4977798;28;20070;-77
2021/10/01 08:41:37;;;;;;;26.23;17.23;;;;;;;;;;4979875;28;20027;-76
2021/10/01 08:44:09;;;;;;;24.98;18.38;;;;;;;;;;4963836;28;20026;-73
2021/10/01 08:46:35;;;;;;;28.10;17.77;;;;;;;;;;4977141;28;20101;-76
2021/10/01 08:49:03;;;;;;;25.90;17.88;;;;;;;;;;4979044;28;20061;-77
2021/10/01 08:51:30;;;;;;;25.50;18.08;;;;;;;;;;4979844;28;20377;-75
2021/10/01 08:53:56;;;;;;;25.50;16.55;;;;;;;;;;4976704;28;20473;-75
2021/10/01 08:56:24;;;;;;;22.20;15.65;;;;;;;;;;4973876;28;20026;-80
2021/10/01 08:58:52;;;;;;;22.15;13.13;;;;;;;;;;4972664;28;20072;-74
2021/10/01 09:01:18;;;;;;;25.17;14.30;;;;;;;;;;4973571;28;20110;-76
2021/10/01 09:03:48;;;;;;;20.95;14.05;;;;;;;;;;4958286;28;20381;-74
2021/10/01 09:06:15;;;;;;;28.33;15.65;;;;;;;;;;4972368;28;20022;-75
2021/10/01 09:08:51;;;;;;;25.45;16.13;;;;;;;;;;4975903;28;20516;-75
2021/10/01 09:11:20;;;;;;;26.58;16.88;;;;;;;;;;4960862;28;20117;-71
2021/10/01 09:13:46;;;;;;;25.15;15.63;;;;;;;;;;4959616;28;20030;-73
2021/10/01 09:16:13;;;;;;;25.58;15.20;;;;;;;;;;4967543;28;20481;-72
2021/10/01 09:18:40;;;;;;;25.35;14.15;;;;;;;;;;4958398;28;20042;-74
2021/10/01 09:21:17;;;;;;;21.90;13.18;;;;;;;;;;4978023;28;20111;-73
2021/10/01 09:23:53;;;;;;;20.60;14.10;;;;;;;;;;4982296;28;20030;-77
2021/10/01 09:26:21;;;;;;;28.70;15.75;;;;;;;;;;4980413;28;20027;-78
2021/10/01 09:28:47;;;;;;;31.08;16.48;;;;;;;;;;4980967;28;20030;-73
2021/10/01 09:31:29;;;;;;;27.20;15.38;;;;;;;;;;4980916;28;20027;-74
2021/10/01 09:33:55;;;;;;;22.20;13.63;;;;;;;;;;4977979;28;20019;-73
2021/10/01 09:36:21;;;;;;;23.30;14.50;;;;;;;;;;4975235;28;20033;-73
2021/10/01 09:38:47;;;;;;;25.88;14.38;;;;;;;;;;4976007;28;20042;-73
2021/10/01 09:41:15;;;;;;;22.13;14.35;;;;;;;;;;4956625;28;20027;-74
2021/10/01 09:43:41;;;;;;;22.60;14.10;;;;;;;;;;4973991;28;20069;-72
2021/10/01 09:46:08;;;;;;;24.33;14.55;;;;;;;;;;4974074;28;20417;-73
2021/10/01 09:48:35;;;;;;;28.05;15.98;;;;;;;;;;4976413;28;20037;-72
2021/10/01 09:51:12;;;;;;;29.25;16.13;;;;;;;;;;4977328;28;20414;-75
2021/10/01 09:53:43;;;;;;;24.10;15.35;;;;;;;;;;4977245;28;20027;-72
2021/10/01 09:56:22;;;;;;;29.92;16.35;;;;;;;;;;4972457;28;20022;-73
2021/10/01 09:59:07;;;;;;;26.08;16.17;;;;;;;;;;4972912;28;20134;-72
2021/10/01 10:01:33;;;;;;;28.05;16.20;;;;;;;;;;4968312;28;20114;-73
2021/10/01 10:04:12;;;;;;;25.67;17.20;;;;;;;;;;4973860;28;20027;-92
2021/10/01 10:06:42;;;;;;;26.85;16.65;;;;;;;;;;4973416;28;20043;-77
2021/10/01 10:09:10;;;;;;;25.42;16.38;;;;;;;;;;4956745;28;20062;-74
2021/10/01 10:11:40;;;;;;;21.55;14.63;;;;;;;;;;4981167;28;20030;-72
2021/10/01 10:14:11;;;;;;;24.17;15.30;;;;;;;;;;4984109;28;20038;-72
2021/10/01 10:16:37;;;;;;;21.10;12.75;;;;;;;;;;4975088;28;20121;-72
2021/10/01 10:19:06;;;;;;;19.65;12.85;;;;;;;;;;4977768;28;20529;-73
2021/10/01 10:21:32;;;;;;;19.05;12.48;;;;;;;;;;4976056;28;20137;-71
2021/10/01 10:23:58;;;;;;;18.20;12.00;;;;;;;;;;4984369;28;20432;-73
2021/10/01 10:26:25;;;;;;;22.67;13.23;;;;;;;;;;4960203;28;20385;-74
2021/10/01 10:28:52;;;;;;;19.20;11.85;;;;;;;;;;4978750;28;20033;-73
2021/10/01 10:31:19;;;;;;;17.20;12.43;;;;;;;;;;4973565;28;20034;-74
2021/10/01 10:33:54;;;;;;;25.15;13.50;;;;;;;;;;4975249;28;20488;-73
2021/10/01 10:36:34;;;;;;;24.17;12.57;;;;;;;;;;4977312;28;20038;-72
2021/10/01 10:39:14;;;;;;;21.55;11.35;;;;;;;;;;4972084;28;20039;-74
2021/10/01 10:41:45;;;;;;;15.98;10.95;;;;;;;;;;4975736;28;20023;-71
2021/10/01 10:44:12;;;;;;;18.27;10.15;;;;;;;;;;4975483;28;20066;-71
2021/10/01 10:46:38;;;;;;;16.95;9.90;;;;;;;;;;4974189;28;20113;-73
2021/10/01 10:49:21;;;;;;;16.38;9.85;;;;;;;;;;4972686;28;20110;-71
2021/10/01 10:52:16;;;;;;;17.08;10.10;;;;;;;;;;4971528;28;20026;-72
2021/10/01 10:54:53;;;;;;;18.30;10.05;;;;;;;;;;4970173;28;20117;-70
2021/10/01 10:57:21;;;;;;;18.52;9.77;;;;;;;;;;4969093;28;20042;-74
2021/10/01 10:59:48;;;;;;;17.23;10.40;;;;;;;;;;4973991;28;20031;-72
2021/10/01 11:02:41;;;;;;;16.83;9.65;;;;;;;;;;4974586;28;20022;-72
2021/10/01 11:05:26;;;;;;;17.75;9.10;;;;;;;;;;4975111;28;20038;-70
2021/10/01 11:08:03;;;;;;;17.75;8.90;;;;;;;;;;4972775;28;20019;-71
2021/10/01 11:10:41;;;;;;;23.25;9.55;;;;;;;;;;4975514;28;20088;-74
2021/10/01 11:13:27;;;;;;;26.05;11.80;;;;;;;;;;4976645;28;20035;-71
2021/10/01 11:16:11;;;;;;;20.17;10.68;;;;;;;;;;4971253;28;20027;-70
2021/10/01 11:18:44;;;;;;;16.42;10.20;;;;;;;;;;4972976;28;20035;-74
2021/10/01 11:26:26;;;;;;;19.60;11.52;;;;;;;;;;4987783;28;20042;-71
2021/10/01 11:28:59;;;;;;;23.42;13.68;;;;;;;;;;4990572;28;20036;-75
2021/10/01 11:31:35;;;;;;;18.75;12.77;;;;;;;;;;4992181;28;20088;-72
2021/10/01 11:34:01;;;;;;;24.95;11.73;;;;;;;;;;4987388;28;20077;-78
2021/10/01 11:36:27;;;;;;;22.45;12.50;;;;;;;;;;4990774;28;20496;-71
2021/10/01 11:42:30;;;;;;;15.52;10.38;;;;;;;;;;4989677;28;20113;-74
2021/10/01 11:44:58;;;;;;;15.85;11.57;;;;;;;;;;4894476;29;20546;-75
2021/10/01 11:47:53;;;;;;;20.60;11.20;;;;;;;;;;4907346;29;20032;-74
2021/10/01 11:50:48;;;;;;;18.25;12.18;;;;;;;;;;4894150;29;20079;-74
2021/10/01 11:53:22;;;;;;;20.33;11.23;;;;;;;;;;4894969;29;20410;-74
2021/10/01 11:55:51;;;;;;;18.50;11.30;;;;;;;;;;4907884;29;20140;-74
2021/10/01 11:58:18;;;;;;;18.30;11.52;;;;;;;;;;4913049;29;20434;-74
2021/10/01 12:00:44;;;;;;;19.27;12.05;;;;;;;;;;4913629;29;20032;-75
2021/10/01 12:03:14;;;;;;;19.92;13.15;;;;;;;;;;4912702;29;20028;-74
2021/10/01 12:05:40;;;;;;;25.92;15.63;;;;;;;;;;4909823;29;20032;-76
2021/10/01 12:08:13;;;;;;;22.60;13.18;;;;;;;;;;4913182;29;20032;-75
2021/10/01 12:10:57;;;;;;;21.90;12.73;;;;;;;;;;4913549;29;20509;-74
2021/10/01 12:13:28;;;;;;;19.70;11.25;;;;;;;;;;4912135;29;20151;-75
2021/10/01 12:15:59;;;;;;;17.13;11.57;;;;;;;;;;4912975;29;20037;-75
2021/10/01 12:18:34;;;;;;;17.67;11.73;;;;;;;;;;4909052;29;20060;-71
2021/10/01 12:21:06;;;;;;;19.98;11.77;;;;;;;;;;4967807;28;20134;-71
2021/10/01 12:23:35;;;;;;;19.42;11.55;;;;;;;;;;4992361;28;20097;-70
2021/10/01 12:26:20;;;;;;;19.67;12.07;;;;;;;;;;4991409;28;20495;-70
2021/10/01 12:28:55;;;;;;;23.42;12.63;;;;;;;;;;4986632;28;20036;-74
2021/10/01 12:31:21;;;;;;;21.63;12.95;;;;;;;;;;4992138;28;20378;-74
2021/10/01 12:33:48;;;;;;;20.15;12.65;;;;;;;;;;4993754;28;20023;-74
2021/10/01 12:36:15;;;;;;;19.83;10.45;;;;;;;;;;4992318;28;20022;-74
2021/10/01 12:39:20;;;;;;;16.98;10.40;;;;;;;;;;4991822;28;20435;-75
2021/10/01 12:41:54;;;;;;;21.25;11.20;;;;;;;;;;4970870;28;20440;-74
2021/10/01 12:44:54;;;;;;;18.77;11.57;;;;;;;;;;4967845;28;20037;-75
2021/10/01 12:47:20;;;;;;;19.20;11.43;;;;;;;;;;4935969;28;20042;-75
2021/10/01 12:50:00;;;;;;;21.52;12.25;;;;;;;;;;4973274;28;20031;-74
2021/10/01 12:52:27;;;;;;;22.15;12.18;;;;;;;;;;4971570;28;20023;-75
2021/10/01 12:54:59;;;;;;;20.88;12.88;;;;;;;;;;4974220;28;20066;-74
2021/10/01 12:57:28;;;;;;;19.65;12.73;;;;;;;;;;4974111;28;20070;-75
2021/10/01 13:00:04;;;;;;;20.55;12.82;;;;;;;;;;4973557;28;20047;-74
2021/10/01 13:02:43;;;;;;;25.02;13.52;;;;;;;;;;4973369;28;20113;-72
2021/10/01 13:05:10;;;;;;;21.83;12.82;;;;;;;;;;4973588;28;20431;-74
2021/10/01 13:08:15;;;;;;;;;;;;;;;;;;;;;
2021/10/01 13:11:07;;;;;;;20.60;12.05;;;;;;;;;;4979383;28;20488;-75
2021/10/01 13:13:36;;;;;;;21.40;11.90;;;;;;;;;;4992905;28;20034;-75
2021/10/01 13:16:13;;;;;;;19.92;11.55;;;;;;;;;;4995294;28;20391;-74
2021/10/01 13:18:41;;;;;;;20.27;10.77;;;;;;;;;;4995169;28;20073;-75
2021/10/01 13:24:53;;;;;;;18.63;11.00;;;;;;;;;;4960091;28;20481;-75
2021/10/01 13:27:20;;;;;;;23.55;11.45;;;;;;;;;;4897267;29;20084;-74
2021/10/01 13:30:05;;;;;;;19.60;10.48;;;;;;;;;;4896853;29;20040;-75
2021/10/01 13:32:32;;;;;;;18.83;11.88;;;;;;;;;;4900491;29;20024;-75
2021/10/01 13:34:58;;;;;;;21.42;10.73;;;;;;;;;;4897533;29;20096;-75
2021/10/01 13:37:24;;;;;;;21.42;9.95;;;;;;;;;;4897847;29;20040;-75
2021/10/01 13:39:50;;;;;;;18.25;9.85;;;;;;;;;;4897252;29;20044;-75
2021/10/01 13:42:16;;;;;;;17.27;10.48;;;;;;;;;;4900883;29;20450;-75
2021/10/01 13:44:42;;;;;;;18.13;10.18;;;;;;;;;;4902962;29;20084;-75
2021/10/01 13:47:08;;;;;;;18.00;9.93;;;;;;;;;;4905913;29;20055;-75
2021/10/01 13:49:34;;;;;;;15.38;9.90;;;;;;;;;;4902754;29;20049;-74
2021/10/01 13:52:00;;;;;;;16.52;9.52;;;;;;;;;;4901245;29;20173;-74
2021/10/01 13:54:26;;;;;;;16.35;9.65;;;;;;;;;;4898669;29;20044;-74
2021/10/01 13:56:52;;;;;;;19.00;9.20;;;;;;;;;;4917378;28;20078;-71
2021/10/01 13:59:55;;;;;;;;;;;;;;;;;;;;;
2021/10/01 14:02:21;;;;;;;16.20;9.70;;;;;;;;;;4991430;28;20045;-74
2021/10/01 14:04:57;;;;;;;19.80;8.65;;;;;;;;;;4994282;28;20053;-74
2021/10/01 14:07:32;;;;;;;13.45;8.88;;;;;;;;;;4976837;28;20030;-74
2021/10/01 14:10:01;;;;;;;19.83;9.70;;;;;;;;;;4976105;28;20481;-75
2021/10/01 14:12:31;;;;;;;14.55;8.43;;;;;;;;;;4977357;28;20025;-74
2021/10/01 14:14:57;;;;;;;16.23;9.32;;;;;;;;;;4993971;28;20037;-74
2021/10/01 14:17:23;;;;;;;16.25;8.77;;;;;;;;;;4998892;28;20026;-75
2021/10/01 14:22:53;;;;;;;16.38;9.65;;;;;;;;;;4989698;28;20105;-75
2021/10/01 14:25:20;;;;;;;17.27;10.30;;;;;;;;;;4993993;28;20047;-75
2021/10/01 14:27:46;;;;;;;17.83;9.68;;;;;;;;;;4993872;28;20117;-75
2021/10/01 14:30:14;;;;;;;16.42;9.00;;;;;;;;;;4993531;28;20029;-75
2021/10/01 14:32:41;;;;;;;16.35;8.60;;;;;;;;;;4993890;28;20471;-75
2021/10/01 14:35:07;;;;;;;21.50;9.25;;;;;;;;;;4996241;28;20534;-75
2021/10/01 14:37:34;;;;;;;15.25;9.50;;;;;;;;;;4993626;28;20046;-75
2021/10/01 14:40:19;;;;;;;;;;;;;;;;;;;;;
2021/10/01 14:42:45;;;;;;;18.52;9.27;;;;;;;;;;4990354;28;20026;-75
2021/10/01 14:45:12;;;;;;;17.25;9.27;;;;;;;;;;4993247;28;20058;-75
2021/10/01 14:47:38;;;;;;;18.27;9.15;;;;;;;;;;4995166;28;20117;-74
2021/10/01 14:50:10;;;;;;;16.00;9.18;;;;;;;;;;4995154;28;20021;-75
2021/10/01 14:52:55;;;;;;;19.42;9.13;;;;;;;;;;4998314;28;20038;-85
2021/10/01 14:55:21;;;;;;;14.60;9.20;;;;;;;;;;4991980;28;20031;-86
2021/10/01 14:57:48;;;;;;;15.38;9.25;;;;;;;;;;4993727;28;20026;-87
2021/10/01 15:00:18;;;;;;;14.27;8.55;;;;;;;;;;4993154;28;20049;-86
2021/10/01 15:02:56;;;;;;;15.73;8.63;;;;;;;;;;4952509;29;20485;-85
2021/10/01 15:05:24;;;;;;;14.48;8.70;;;;;;;;;;4952329;28;20050;-82
2021/10/01 15:07:51;;;;;;;16.52;8.70;;;;;;;;;;4936329;29;20085;-86
2021/10/01 15:10:17;;;;;;;12.40;8.25;;;;;;;;;;4952030;29;20055;-83
2021/10/01 15:12:43;;;;;;;16.73;8.70;;;;;;;;;;4952536;28;20059;-85
2021/10/01 15:15:11;;;;;;;16.98;9.10;;;;;;;;;;4951327;28;20039;-81
2021/10/01 15:17:37;;;;;;;16.27;9.10;;;;;;;;;;4953308;28;20149;-83
2021/10/01 15:20:24;;;;;;;15.18;8.45;;;;;;;;;;4947594;28;20046;-84
2021/10/01 15:22:50;;;;;;;16.05;8.57;;;;;;;;;;4942609;28;20083;-80
2021/10/01 15:25:17;;;;;;;15.68;8.95;;;;;;;;;;4951247;28;20042;-83
2021/10/01 15:27:43;;;;;;;16.23;9.05;;;;;;;;;;4979873;28;20447;-79
2021/10/01 15:30:12;;;;;;;15.10;8.98;;;;;;;;;;4993227;28;20026;-80
2021/10/01 15:32:44;;;;;;;15.90;8.63;;;;;;;;;;4996902;28;20035;-77
2021/10/01 15:35:31;;;;;;;18.73;8.82;;;;;;;;;;4999646;28;20037;-84
2021/10/01 15:38:00;;;;;;;19.35;9.23;;;;;;;;;;4978721;28;20030;-83
2021/10/01 15:40:27;;;;;;;15.75;8.70;;;;;;;;;;4991629;28;20023;-79
2021/10/01 15:42:59;;;;;;;15.35;9.30;;;;;;;;;;4994923;28;20096;-81
2021/10/01 15:45:25;;;;;;;14.10;8.73;;;;;;;;;;4977131;28;20129;-73
2021/10/01 15:47:53;;;;;;;19.55;8.65;;;;;;;;;;4996738;28;20054;-80
2021/10/01 15:50:19;;;;;;;15.95;8.88;;;;;;;;;;4977901;28;20424;-78
2021/10/01 15:52:49;;;;;;;14.55;8.55;;;;;;;;;;4992796;28;20033;-78
2021/10/01 15:55:44;;;;;;;15.27;9.18;;;;;;;;;;4993192;28;20110;-82
2021/10/01 15:58:13;;;;;;;15.63;8.77;;;;;;;;;;4930266;29;20620;-79
2021/10/01 16:00:41;;;;;;;15.68;8.98;;;;;;;;;;4915282;29;20036;-77
2021/10/01 16:03:08;;;;;;;22.35;9.52;;;;;;;;;;4928902;29;20036;-81
2021/10/01 16:05:34;;;;;;;16.05;9.80;;;;;;;;;;4920843;29;20040;-76
2021/10/01 16:08:06;;;;;;;16.48;9.27;;;;;;;;;;4919337;29;20044;-71
2021/10/01 16:10:33;;;;;;;17.98;9.48;;;;;;;;;;4906136;29;20067;-76
2021/10/01 16:13:00;;;;;;;15.57;9.90;;;;;;;;;;4925798;29;20594;-71
2021/10/01 16:15:26;;;;;;;21.42;9.93;;;;;;;;;;4926972;29;20052;-71
2021/10/01 16:18:06;;;;;;;22.98;13.50;;;;;;;;;;4924343;29;20642;-72
2021/10/01 16:20:35;;;;;;;20.52;10.93;;;;;;;;;;4931859;29;20036;-76
2021/10/01 16:23:11;;;;;;;17.73;11.05;;;;;;;;;;4918937;29;20135;-74
2021/10/01 16:25:40;;;;;;;18.52;11.18;;;;;;;;;;4931455;29;20510;-74
2021/10/01 16:28:09;;;;;;;18.48;11.20;;;;;;;;;;4927959;28;20075;-75